sensor_id;sensor_type;location;lat;lon;timestamp;P1;durP1;ratioP1;P2;durP2;ratioP2
4051;SDS011;2040;50.924;11.604;2022-12-19T00:01:26;5.30;;;2.57;;
4051;SDS011;2040;50.924;11.604;2022-12-19T00:03:58;3.70;;;1.90;;
4051;SDS011;2040;50.924;11.604;2022-12-19T00:06:25;5.73;;;3.03;;
4051;SDS011;2040;50.924;11.604;2022-12-19T00:08:51;6.17;;;2.70;;
4051;SDS011;2040;50.924;11.604;2022-12-19T00:11:19;2.97;;;1.70;;
4051;SDS011;2040;50.924;11.604;2022-12-19T00:13:47;3.13;;;2.20;;
4051;SDS011;2040;50.924;11.604;2022-12-19T00:16:14;4.80;;;2.50;;
4051;SDS011;2040;50.924;11.604;2022-12-19T00:19:00;2.43;;;2.10;;
4051;SDS011;2040;50.924;11.604;2022-12-19T00:21:30;4.23;;;2.10;;
4051;SDS011;2040;50.924;11.604;2022-12-19T00:23:57;3.77;;;2.27;;
4051;SDS011;2040;50.924;11.604;2022-12-19T00:28:51;5.27;;;2.40;;
4051;SDS011;2040;50.924;11.604;2022-12-19T00:31:19;4.60;;;2.33;;
4051;SDS011;2040;50.924;11.604;2022-12-19T00:33:45;5.93;;;2.20;;
4051;SDS011;2040;50.924;11.604;2022-12-19T00:36:13;2.03;;;1.60;;
4051;SDS011;2040;50.924;11.604;2022-12-19T00:38:54;7.00;;;2.57;;
4051;SDS011;2040;50.924;11.604;2022-12-19T00:43:55;5.83;;;2.30;;
4051;SDS011;2040;50.924;11.604;2022-12-19T00:46:22;4.07;;;2.80;;
4051;SDS011;2040;50.924;11.604;2022-12-19T00:48:48;6.17;;;3.00;;
4051;SDS011;2040;50.924;11.604;2022-12-19T00:51:14;4.97;;;2.50;;
4051;SDS011;2040;50.924;11.604;2022-12-19T00:53:43;4.70;;;2.83;;
4051;SDS011;2040;50.924;11.604;2022-12-19T00:56:10;4.03;;;2.30;;
4051;SDS011;2040;50.924;11.604;2022-12-19T00:58:38;8.90;;;2.77;;
4051;SDS011;2040;50.924;11.604;2022-12-19T01:01:08;4.00;;;2.13;;
4051;SDS011;2040;50.924;11.604;2022-12-19T01:03:37;5.27;;;3.13;;
4051;SDS011;2040;50.924;11.604;2022-12-19T01:06:02;4.43;;;2.53;;
4051;SDS011;2040;50.924;11.604;2022-12-19T01:08:29;4.60;;;2.27;;
4051;SDS011;2040;50.924;11.604;2022-12-19T01:10:54;3.47;;;2.53;;
4051;SDS011;2040;50.924;11.604;2022-12-19T01:13:21;2.90;;;2.60;;
4051;SDS011;2040;50.924;11.604;2022-12-19T01:15:48;5.97;;;2.87;;
4051;SDS011;2040;50.924;11.604;2022-12-19T01:18:14;4.27;;;2.30;;
4051;SDS011;2040;50.924;11.604;2022-12-19T01:20:41;9.13;;;2.73;;
4051;SDS011;2040;50.924;11.604;2022-12-19T01:23:08;3.77;;;2.10;;
4051;SDS011;2040;50.924;11.604;2022-12-19T01:25:34;3.40;;;2.30;;
4051;SDS011;2040;50.924;11.604;2022-12-19T01:28:02;5.47;;;2.20;;
4051;SDS011;2040;50.924;11.604;2022-12-19T01:30:28;6.27;;;3.00;;
4051;SDS011;2040;50.924;11.604;2022-12-19T01:32:54;6.20;;;2.97;;
4051;SDS011;2040;50.924;11.604;2022-12-19T01:35:21;5.00;;;2.47;;
4051;SDS011;2040;50.924;11.604;2022-12-19T01:37:47;6.67;;;2.80;;
4051;SDS011;2040;50.924;11.604;2022-12-19T01:40:14;5.17;;;2.50;;
4051;SDS011;2040;50.924;11.604;2022-12-19T01:42:39;6.93;;;3.60;;
4051;SDS011;2040;50.924;11.604;2022-12-19T01:47:35;11.50;;;3.50;;
4051;SDS011;2040;50.924;11.604;2022-12-19T01:50:15;5.10;;;2.70;;
4051;SDS011;2040;50.924;11.604;2022-12-19T01:52:45;3.40;;;2.10;;
4051;SDS011;2040;50.924;11.604;2022-12-19T01:55:11;3.20;;;1.90;;
4051;SDS011;2040;50.924;11.604;2022-12-19T01:57:38;6.47;;;2.70;;
4051;SDS011;2040;50.924;11.604;2022-12-19T02:00:04;10.20;;;3.00;;
4051;SDS011;2040;50.924;11.604;2022-12-19T02:02:38;6.60;;;2.60;;
4051;SDS011;2040;50.924;11.604;2022-12-19T02:05:17;4.83;;;2.23;;
4051;SDS011;2040;50.924;11.604;2022-12-19T02:07:43;9.10;;;2.83;;
4051;SDS011;2040;50.924;11.604;2022-12-19T02:10:10;5.20;;;2.40;;
4051;SDS011;2040;50.924;11.604;2022-12-19T02:12:37;3.47;;;2.30;;
4051;SDS011;2040;50.924;11.604;2022-12-19T02:15:07;5.57;;;2.20;;
4051;SDS011;2040;50.924;11.604;2022-12-19T02:29:12;6.40;;;3.30;;
4051;SDS011;2040;50.924;11.604;2022-12-19T02:34:30;4.37;;;3.00;;
4051;SDS011;2040;50.924;11.604;2022-12-19T02:37:16;5.20;;;3.23;;
4051;SDS011;2040;50.924;11.604;2022-12-19T02:39:48;6.03;;;2.83;;
4051;SDS011;2040;50.924;11.604;2022-12-19T02:42:37;7.77;;;2.77;;
4051;SDS011;2040;50.924;11.604;2022-12-19T02:45:06;7.60;;;3.10;;
4051;SDS011;2040;50.924;11.604;2022-12-19T02:47:34;5.00;;;3.53;;
4051;SDS011;2040;50.924;11.604;2022-12-19T02:50:02;8.03;;;3.00;;
4051;SDS011;2040;50.924;11.604;2022-12-19T02:55:04;5.23;;;3.10;;
4051;SDS011;2040;50.924;11.604;2022-12-19T02:57:44;6.20;;;2.70;;
4051;SDS011;2040;50.924;11.604;2022-12-19T03:00:21;5.70;;;3.13;;
4051;SDS011;2040;50.924;11.604;2022-12-19T03:06:02;3.97;;;2.90;;
4051;SDS011;2040;50.924;11.604;2022-12-19T03:09:27;7.70;;;3.37;;
4051;SDS011;2040;50.924;11.604;2022-12-19T03:11:33;4.83;;;3.00;;
4051;SDS011;2040;50.924;11.604;2022-12-19T03:14:05;2.90;;;1.93;;
4051;SDS011;2040;50.924;11.604;2022-12-19T03:16:33;5.30;;;2.70;;
4051;SDS011;2040;50.924;11.604;2022-12-19T03:19:00;8.00;;;3.83;;
4051;SDS011;2040;50.924;11.604;2022-12-19T03:21:33;6.60;;;3.60;;
4051;SDS011;2040;50.924;11.604;2022-12-19T03:24:01;11.93;;;3.40;;
4051;SDS011;2040;50.924;11.604;2022-12-19T03:26:30;5.03;;;2.87;;
4051;SDS011;2040;50.924;11.604;2022-12-19T03:32:02;8.53;;;3.80;;
4051;SDS011;2040;50.924;11.604;2022-12-19T03:34:31;5.47;;;2.83;;
4051;SDS011;2040;50.924;11.604;2022-12-19T03:37:03;8.20;;;3.20;;
4051;SDS011;2040;50.924;11.604;2022-12-19T03:39:31;6.40;;;2.80;;
4051;SDS011;2040;50.924;11.604;2022-12-19T03:41:58;11.07;;;4.33;;
4051;SDS011;2040;50.924;11.604;2022-12-19T03:44:45;4.90;;;2.93;;
4051;SDS011;2040;50.924;11.604;2022-12-19T03:49:42;7.33;;;3.97;;
4051;SDS011;2040;50.924;11.604;2022-12-19T03:52:10;7.23;;;3.60;;
4051;SDS011;2040;50.924;11.604;2022-12-19T03:54:58;4.83;;;3.13;;
4051;SDS011;2040;50.924;11.604;2022-12-19T03:57:33;7.33;;;3.70;;
4051;SDS011;2040;50.924;11.604;2022-12-19T04:00:26;6.13;;;3.43;;
4051;SDS011;2040;50.924;11.604;2022-12-19T04:02:55;10.20;;;3.33;;
4051;SDS011;2040;50.924;11.604;2022-12-19T04:05:23;5.27;;;3.00;;
4051;SDS011;2040;50.924;11.604;2022-12-19T04:07:51;4.63;;;3.20;;
4051;SDS011;2040;50.924;11.604;2022-12-19T04:10:21;10.20;;;3.90;;
4051;SDS011;2040;50.924;11.604;2022-12-19T04:12:51;10.17;;;3.63;;
4051;SDS011;2040;50.924;11.604;2022-12-19T04:15:53;7.70;;;3.87;;
4051;SDS011;2040;50.924;11.604;2022-12-19T04:18:22;4.23;;;2.40;;
4051;SDS011;2040;50.924;11.604;2022-12-19T04:20:51;4.23;;;2.87;;
4051;SDS011;2040;50.924;11.604;2022-12-19T04:23:26;6.93;;;4.27;;
4051;SDS011;2040;50.924;11.604;2022-12-19T04:25:58;4.63;;;2.93;;
4051;SDS011;2040;50.924;11.604;2022-12-19T04:31:14;10.13;;;4.53;;
4051;SDS011;2040;50.924;11.604;2022-12-19T04:33:40;6.53;;;3.37;;
4051;SDS011;2040;50.924;11.604;2022-12-19T04:36:06;10.30;;;3.43;;
4051;SDS011;2040;50.924;11.604;2022-12-19T04:38:32;9.73;;;3.47;;
4051;SDS011;2040;50.924;11.604;2022-12-19T04:40:58;6.13;;;3.70;;
4051;SDS011;2040;50.924;11.604;2022-12-19T04:43:23;9.67;;;3.73;;
4051;SDS011;2040;50.924;11.604;2022-12-19T04:45:49;6.83;;;3.80;;
4051;SDS011;2040;50.924;11.604;2022-12-19T04:48:15;7.53;;;4.00;;
4051;SDS011;2040;50.924;11.604;2022-12-19T04:50:40;10.63;;;4.53;;
4051;SDS011;2040;50.924;11.604;2022-12-19T04:53:06;6.83;;;3.87;;
4051;SDS011;2040;50.924;11.604;2022-12-19T04:55:32;5.10;;;3.77;;
4051;SDS011;2040;50.924;11.604;2022-12-19T04:57:57;7.00;;;4.20;;
4051;SDS011;2040;50.924;11.604;2022-12-19T05:00:23;8.93;;;5.10;;
4051;SDS011;2040;50.924;11.604;2022-12-19T05:02:48;7.10;;;4.30;;
4051;SDS011;2040;50.924;11.604;2022-12-19T05:05:14;11.67;;;4.23;;
4051;SDS011;2040;50.924;11.604;2022-12-19T05:07:42;10.27;;;3.33;;
4051;SDS011;2040;50.924;11.604;2022-12-19T05:10:07;9.90;;;3.60;;
4051;SDS011;2040;50.924;11.604;2022-12-19T05:12:33;7.67;;;3.60;;
4051;SDS011;2040;50.924;11.604;2022-12-19T05:14:59;9.27;;;4.73;;
4051;SDS011;2040;50.924;11.604;2022-12-19T05:17:24;7.20;;;4.10;;
4051;SDS011;2040;50.924;11.604;2022-12-19T05:19:50;10.30;;;3.83;;
4051;SDS011;2040;50.924;11.604;2022-12-19T05:22:16;8.00;;;4.03;;
4051;SDS011;2040;50.924;11.604;2022-12-19T05:24:41;10.40;;;5.17;;
4051;SDS011;2040;50.924;11.604;2022-12-19T05:27:07;9.27;;;3.60;;
4051;SDS011;2040;50.924;11.604;2022-12-19T05:29:32;4.00;;;2.70;;
4051;SDS011;2040;50.924;11.604;2022-12-19T05:31:58;8.57;;;4.73;;
4051;SDS011;2040;50.924;11.604;2022-12-19T05:34:24;9.10;;;5.23;;
4051;SDS011;2040;50.924;11.604;2022-12-19T05:36:49;11.60;;;5.60;;
4051;SDS011;2040;50.924;11.604;2022-12-19T05:39:15;8.57;;;4.20;;
4051;SDS011;2040;50.924;11.604;2022-12-19T05:41:41;8.33;;;3.90;;
4051;SDS011;2040;50.924;11.604;2022-12-19T05:44:07;9.40;;;4.27;;
4051;SDS011;2040;50.924;11.604;2022-12-19T05:46:33;9.33;;;4.50;;
4051;SDS011;2040;50.924;11.604;2022-12-19T05:48:59;14.63;;;5.10;;
4051;SDS011;2040;50.924;11.604;2022-12-19T05:51:25;10.83;;;4.90;;
4051;SDS011;2040;50.924;11.604;2022-12-19T05:53:51;6.40;;;4.20;;
4051;SDS011;2040;50.924;11.604;2022-12-19T05:56:17;8.07;;;3.60;;
4051;SDS011;2040;50.924;11.604;2022-12-19T05:58:45;9.00;;;4.80;;
4051;SDS011;2040;50.924;11.604;2022-12-19T06:01:19;6.73;;;4.40;;
4051;SDS011;2040;50.924;11.604;2022-12-19T06:03:46;16.20;;;4.97;;
4051;SDS011;2040;50.924;11.604;2022-12-19T06:06:14;11.87;;;4.23;;
4051;SDS011;2040;50.924;11.604;2022-12-19T06:08:41;13.03;;;5.17;;
4051;SDS011;2040;50.924;11.604;2022-12-19T06:11:08;11.13;;;5.37;;
4051;SDS011;2040;50.924;11.604;2022-12-19T06:13:35;11.93;;;5.20;;
4051;SDS011;2040;50.924;11.604;2022-12-19T06:16:06;9.60;;;5.10;;
4051;SDS011;2040;50.924;11.604;2022-12-19T06:18:36;7.00;;;4.27;;
4051;SDS011;2040;50.924;11.604;2022-12-19T06:21:07;8.53;;;4.47;;
4051;SDS011;2040;50.924;11.604;2022-12-19T06:23:36;10.23;;;5.07;;
4051;SDS011;2040;50.924;11.604;2022-12-19T06:26:03;9.73;;;4.10;;
4051;SDS011;2040;50.924;11.604;2022-12-19T06:28:30;11.63;;;5.90;;
4051;SDS011;2040;50.924;11.604;2022-12-19T06:31:00;8.20;;;4.20;;
4051;SDS011;2040;50.924;11.604;2022-12-19T06:33:27;11.83;;;5.50;;
4051;SDS011;2040;50.924;11.604;2022-12-19T06:38:27;11.30;;;4.97;;
4051;SDS011;2040;50.924;11.604;2022-12-19T06:40:54;9.60;;;4.70;;
4051;SDS011;2040;50.924;11.604;2022-12-19T06:43:39;11.93;;;5.43;;
4051;SDS011;2040;50.924;11.604;2022-12-19T06:46:05;9.37;;;4.10;;
4051;SDS011;2040;50.924;11.604;2022-12-19T06:48:31;7.90;;;4.77;;
4051;SDS011;2040;50.924;11.604;2022-12-19T06:50:57;8.40;;;4.20;;
4051;SDS011;2040;50.924;11.604;2022-12-19T06:53:22;11.27;;;4.43;;
4051;SDS011;2040;50.924;11.604;2022-12-19T06:55:49;9.30;;;5.10;;
4051;SDS011;2040;50.924;11.604;2022-12-19T06:58:17;8.03;;;4.47;;
4051;SDS011;2040;50.924;11.604;2022-12-19T07:00:43;8.40;;;4.20;;
4051;SDS011;2040;50.924;11.604;2022-12-19T07:03:09;6.77;;;4.20;;
4051;SDS011;2040;50.924;11.604;2022-12-19T07:05:37;10.40;;;4.73;;
4051;SDS011;2040;50.924;11.604;2022-12-19T07:08:04;12.27;;;6.23;;
4051;SDS011;2040;50.924;11.604;2022-12-19T07:10:30;16.60;;;4.80;;
4051;SDS011;2040;50.924;11.604;2022-12-19T07:12:55;9.63;;;5.00;;
4051;SDS011;2040;50.924;11.604;2022-12-19T07:15:21;9.37;;;4.60;;
4051;SDS011;2040;50.924;11.604;2022-12-19T07:17:47;8.63;;;4.10;;
4051;SDS011;2040;50.924;11.604;2022-12-19T07:20:13;8.50;;;4.03;;
4051;SDS011;2040;50.924;11.604;2022-12-19T07:22:40;15.63;;;5.57;;
4051;SDS011;2040;50.924;11.604;2022-12-19T07:25:07;11.30;;;5.23;;
4051;SDS011;2040;50.924;11.604;2022-12-19T07:27:34;9.90;;;4.90;;
4051;SDS011;2040;50.924;11.604;2022-12-19T07:30:00;11.00;;;6.00;;
4051;SDS011;2040;50.924;11.604;2022-12-19T07:32:25;11.40;;;5.67;;
4051;SDS011;2040;50.924;11.604;2022-12-19T07:34:52;10.20;;;4.87;;
4051;SDS011;2040;50.924;11.604;2022-12-19T07:37:18;8.47;;;4.17;;
4051;SDS011;2040;50.924;11.604;2022-12-19T07:39:45;7.07;;;4.23;;
4051;SDS011;2040;50.924;11.604;2022-12-19T07:42:10;14.53;;;6.83;;
4051;SDS011;2040;50.924;11.604;2022-12-19T07:44:36;11.00;;;4.50;;
4051;SDS011;2040;50.924;11.604;2022-12-19T07:47:01;13.23;;;5.57;;
4051;SDS011;2040;50.924;11.604;2022-12-19T07:49:27;6.10;;;4.20;;
4051;SDS011;2040;50.924;11.604;2022-12-19T07:51:53;11.07;;;4.97;;
4051;SDS011;2040;50.924;11.604;2022-12-19T07:54:18;12.10;;;4.97;;
4051;SDS011;2040;50.924;11.604;2022-12-19T07:56:44;7.03;;;4.73;;
4051;SDS011;2040;50.924;11.604;2022-12-19T07:59:10;9.40;;;4.63;;
4051;SDS011;2040;50.924;11.604;2022-12-19T08:01:37;13.53;;;6.20;;
4051;SDS011;2040;50.924;11.604;2022-12-19T08:04:02;12.30;;;5.07;;
4051;SDS011;2040;50.924;11.604;2022-12-19T08:06:28;12.13;;;5.50;;
4051;SDS011;2040;50.924;11.604;2022-12-19T08:08:54;9.60;;;5.20;;
4051;SDS011;2040;50.924;11.604;2022-12-19T08:11:20;13.87;;;5.30;;
4051;SDS011;2040;50.924;11.604;2022-12-19T08:13:50;12.90;;;5.17;;
4051;SDS011;2040;50.924;11.604;2022-12-19T08:16:16;10.57;;;4.73;;
4051;SDS011;2040;50.924;11.604;2022-12-19T08:18:42;8.20;;;6.03;;
4051;SDS011;2040;50.924;11.604;2022-12-19T08:21:08;8.90;;;4.20;;
4051;SDS011;2040;50.924;11.604;2022-12-19T08:23:34;10.03;;;4.27;;
4051;SDS011;2040;50.924;11.604;2022-12-19T08:26:00;10.70;;;5.17;;
4051;SDS011;2040;50.924;11.604;2022-12-19T08:28:28;8.87;;;4.60;;
4051;SDS011;2040;50.924;11.604;2022-12-19T08:30:54;8.97;;;4.83;;
4051;SDS011;2040;50.924;11.604;2022-12-19T08:33:20;14.00;;;5.57;;
4051;SDS011;2040;50.924;11.604;2022-12-19T08:35:45;8.67;;;5.30;;
4051;SDS011;2040;50.924;11.604;2022-12-19T08:38:11;11.37;;;5.40;;
4051;SDS011;2040;50.924;11.604;2022-12-19T08:40:37;13.10;;;5.40;;
4051;SDS011;2040;50.924;11.604;2022-12-19T08:43:02;12.23;;;5.77;;
4051;SDS011;2040;50.924;11.604;2022-12-19T08:45:28;11.37;;;5.63;;
4051;SDS011;2040;50.924;11.604;2022-12-19T08:47:54;12.87;;;6.50;;
4051;SDS011;2040;50.924;11.604;2022-12-19T08:50:20;10.30;;;5.70;;
4051;SDS011;2040;50.924;11.604;2022-12-19T08:52:45;15.23;;;5.83;;
4051;SDS011;2040;50.924;11.604;2022-12-19T08:55:11;14.03;;;7.33;;
4051;SDS011;2040;50.924;11.604;2022-12-19T08:57:36;10.43;;;5.53;;
4051;SDS011;2040;50.924;11.604;2022-12-19T09:00:03;13.43;;;6.00;;
4051;SDS011;2040;50.924;11.604;2022-12-19T09:02:29;15.57;;;7.30;;
4051;SDS011;2040;50.924;11.604;2022-12-19T09:04:55;12.63;;;5.87;;
4051;SDS011;2040;50.924;11.604;2022-12-19T09:07:21;14.73;;;5.60;;
4051;SDS011;2040;50.924;11.604;2022-12-19T09:09:46;17.07;;;7.13;;
4051;SDS011;2040;50.924;11.604;2022-12-19T09:12:12;14.43;;;6.90;;
4051;SDS011;2040;50.924;11.604;2022-12-19T09:14:39;18.47;;;7.80;;
4051;SDS011;2040;50.924;11.604;2022-12-19T09:17:04;14.93;;;6.80;;
4051;SDS011;2040;50.924;11.604;2022-12-19T09:19:30;13.50;;;5.80;;
4051;SDS011;2040;50.924;11.604;2022-12-19T09:21:56;16.80;;;5.33;;
4051;SDS011;2040;50.924;11.604;2022-12-19T09:24:22;12.63;;;6.00;;
4051;SDS011;2040;50.924;11.604;2022-12-19T09:26:47;15.97;;;6.97;;
4051;SDS011;2040;50.924;11.604;2022-12-19T09:29:13;11.67;;;6.60;;
4051;SDS011;2040;50.924;11.604;2022-12-19T09:31:38;15.10;;;6.60;;
4051;SDS011;2040;50.924;11.604;2022-12-19T09:34:04;14.37;;;7.13;;
4051;SDS011;2040;50.924;11.604;2022-12-19T09:36:30;12.70;;;6.90;;
4051;SDS011;2040;50.924;11.604;2022-12-19T09:38:56;18.27;;;7.47;;
4051;SDS011;2040;50.924;11.604;2022-12-19T09:44:00;20.37;;;7.20;;
4051;SDS011;2040;50.924;11.604;2022-12-19T09:49:08;12.77;;;8.00;;
4051;SDS011;2040;50.924;11.604;2022-12-19T09:51:37;23.33;;;9.43;;
4051;SDS011;2040;50.924;11.604;2022-12-19T09:54:11;18.43;;;7.60;;
4051;SDS011;2040;50.924;11.604;2022-12-19T09:56:44;15.90;;;7.17;;
4051;SDS011;2040;50.924;11.604;2022-12-19T09:59:26;13.93;;;7.90;;
4051;SDS011;2040;50.924;11.604;2022-12-19T10:02:03;14.70;;;7.40;;
4051;SDS011;2040;50.924;11.604;2022-12-19T10:04:37;18.07;;;7.27;;
4051;SDS011;2040;50.924;11.604;2022-12-19T10:07:11;15.87;;;7.70;;
4051;SDS011;2040;50.924;11.604;2022-12-19T10:09:38;22.13;;;8.77;;
4051;SDS011;2040;50.924;11.604;2022-12-19T10:20:16;16.77;;;7.60;;
4051;SDS011;2040;50.924;11.604;2022-12-19T10:22:55;18.43;;;8.30;;
4051;SDS011;2040;50.924;11.604;2022-12-19T10:28:29;15.13;;;6.27;;
4051;SDS011;2040;50.924;11.604;2022-12-19T10:31:15;23.27;;;8.80;;
4051;SDS011;2040;50.924;11.604;2022-12-19T10:33:50;17.17;;;7.03;;
4051;SDS011;2040;50.924;11.604;2022-12-19T10:36:25;13.20;;;6.93;;
4051;SDS011;2040;50.924;11.604;2022-12-19T10:39:02;19.37;;;7.70;;
4051;SDS011;2040;50.924;11.604;2022-12-19T10:41:35;15.10;;;8.03;;
4051;SDS011;2040;50.924;11.604;2022-12-19T10:44:06;13.80;;;7.50;;
4051;SDS011;2040;50.924;11.604;2022-12-19T10:51:37;25.57;;;8.77;;
4051;SDS011;2040;50.924;11.604;2022-12-19T10:54:03;17.27;;;6.90;;
4051;SDS011;2040;50.924;11.604;2022-12-19T10:56:29;14.30;;;6.90;;
4051;SDS011;2040;50.924;11.604;2022-12-19T10:58:55;23.70;;;9.00;;
4051;SDS011;2040;50.924;11.604;2022-12-19T11:09:40;16.27;;;7.70;;
4051;SDS011;2040;50.924;11.604;2022-12-19T11:14:36;21.23;;;6.43;;
4051;SDS011;2040;50.924;11.604;2022-12-19T11:17:21;14.30;;;7.00;;
4051;SDS011;2040;50.924;11.604;2022-12-19T11:19:49;15.07;;;7.10;;
4051;SDS011;2040;50.924;11.604;2022-12-19T11:22:15;16.37;;;8.63;;
4051;SDS011;2040;50.924;11.604;2022-12-19T11:24:49;17.20;;;8.00;;
4051;SDS011;2040;50.924;11.604;2022-12-19T11:32:39;14.23;;;7.33;;
4051;SDS011;2040;50.924;11.604;2022-12-19T11:35:23;15.90;;;6.80;;
4051;SDS011;2040;50.924;11.604;2022-12-19T11:40:35;19.90;;;8.60;;
4051;SDS011;2040;50.924;11.604;2022-12-19T11:57:06;20.10;;;8.60;;
4051;SDS011;2040;50.924;11.604;2022-12-19T11:59:36;23.33;;;10.00;;
4051;SDS011;2040;50.924;11.604;2022-12-19T12:07:48;17.00;;;8.13;;
4051;SDS011;2040;50.924;11.604;2022-12-19T12:10:21;21.30;;;8.73;;
4051;SDS011;2040;50.924;11.604;2022-12-19T12:12:54;17.13;;;7.67;;
4051;SDS011;2040;50.924;11.604;2022-12-19T12:16:31;18.20;;;8.43;;
4051;SDS011;2040;50.924;11.604;2022-12-19T12:19:02;30.00;;;8.77;;
4051;SDS011;2040;50.924;11.604;2022-12-19T12:29:49;19.33;;;7.87;;
4051;SDS011;2040;50.924;11.604;2022-12-19T12:35:17;19.33;;;8.93;;
4051;SDS011;2040;50.924;11.604;2022-12-19T12:46:18;23.27;;;9.37;;
4051;SDS011;2040;50.924;11.604;2022-12-19T12:48:56;13.73;;;7.53;;
4051;SDS011;2040;50.924;11.604;2022-12-19T12:51:25;22.70;;;9.53;;
4051;SDS011;2040;50.924;11.604;2022-12-19T12:53:54;25.20;;;8.77;;
4051;SDS011;2040;50.924;11.604;2022-12-19T12:56:27;18.93;;;7.60;;
4051;SDS011;2040;50.924;11.604;2022-12-19T13:03:55;27.83;;;9.13;;
4051;SDS011;2040;50.924;11.604;2022-12-19T13:06:38;12.53;;;6.70;;
4051;SDS011;2040;50.924;11.604;2022-12-19T13:11:52;24.47;;;9.73;;
4051;SDS011;2040;50.924;11.604;2022-12-19T13:14:41;24.13;;;8.53;;
4051;SDS011;2040;50.924;11.604;2022-12-19T13:17:10;17.67;;;8.20;;
4051;SDS011;2040;50.924;11.604;2022-12-19T13:20:43;24.20;;;8.23;;
4051;SDS011;2040;50.924;11.604;2022-12-19T13:23:03;20.20;;;8.83;;
4051;SDS011;2040;50.924;11.604;2022-12-19T13:28:12;25.03;;;10.27;;
4051;SDS011;2040;50.924;11.604;2022-12-19T13:42:15;22.63;;;9.10;;
4051;SDS011;2040;50.924;11.604;2022-12-19T13:45:06;28.70;;;10.07;;
4051;SDS011;2040;50.924;11.604;2022-12-19T13:47:37;23.90;;;9.50;;
4051;SDS011;2040;50.924;11.604;2022-12-19T13:50:14;21.20;;;9.73;;
4051;SDS011;2040;50.924;11.604;2022-12-19T13:52:48;24.47;;;9.23;;
4051;SDS011;2040;50.924;11.604;2022-12-19T13:55:14;23.10;;;9.37;;
4051;SDS011;2040;50.924;11.604;2022-12-19T13:57:40;23.87;;;10.33;;
4051;SDS011;2040;50.924;11.604;2022-12-19T14:00:07;22.50;;;10.00;;
4051;SDS011;2040;50.924;11.604;2022-12-19T14:02:39;30.43;;;10.13;;
4051;SDS011;2040;50.924;11.604;2022-12-19T14:05:32;22.27;;;8.90;;
4051;SDS011;2040;50.924;11.604;2022-12-19T14:07:58;26.97;;;10.50;;
4051;SDS011;2040;50.924;11.604;2022-12-19T14:10:28;25.83;;;9.87;;
4051;SDS011;2040;50.924;11.604;2022-12-19T14:12:57;28.23;;;11.70;;
4051;SDS011;2040;50.924;11.604;2022-12-19T14:15:43;22.43;;;10.90;;
4051;SDS011;2040;50.924;11.604;2022-12-19T14:20:42;28.53;;;10.10;;
4051;SDS011;2040;50.924;11.604;2022-12-19T14:23:09;30.93;;;11.37;;
4051;SDS011;2040;50.924;11.604;2022-12-19T14:25:42;28.50;;;11.13;;
4051;SDS011;2040;50.924;11.604;2022-12-19T14:28:18;28.83;;;11.50;;
4051;SDS011;2040;50.924;11.604;2022-12-19T14:30:53;28.70;;;11.50;;
4051;SDS011;2040;50.924;11.604;2022-12-19T14:36:13;28.40;;;11.70;;
4051;SDS011;2040;50.924;11.604;2022-12-19T14:38:51;31.90;;;12.97;;
4051;SDS011;2040;50.924;11.604;2022-12-19T14:41:32;30.20;;;9.90;;
4051;SDS011;2040;50.924;11.604;2022-12-19T14:44:23;27.40;;;12.13;;
4051;SDS011;2040;50.924;11.604;2022-12-19T14:47:19;24.20;;;10.73;;
4051;SDS011;2040;50.924;11.604;2022-12-19T14:49:48;23.87;;;11.07;;
4051;SDS011;2040;50.924;11.604;2022-12-19T14:52:31;24.50;;;12.20;;
4051;SDS011;2040;50.924;11.604;2022-12-19T14:55:13;26.70;;;11.13;;
4051;SDS011;2040;50.924;11.604;2022-12-19T14:57:39;32.53;;;13.17;;
4051;SDS011;2040;50.924;11.604;2022-12-19T15:02:55;32.50;;;11.20;;
4051;SDS011;2040;50.924;11.604;2022-12-19T15:05:24;34.27;;;13.60;;
4051;SDS011;2040;50.924;11.604;2022-12-19T15:07:50;23.47;;;11.00;;
4051;SDS011;2040;50.924;11.604;2022-12-19T15:15:50;28.73;;;11.70;;
4051;SDS011;2040;50.924;11.604;2022-12-19T15:18:27;32.57;;;11.93;;
4051;SDS011;2040;50.924;11.604;2022-12-19T15:20:57;33.07;;;12.60;;
4051;SDS011;2040;50.924;11.604;2022-12-19T15:23:25;30.77;;;11.70;;
4051;SDS011;2040;50.924;11.604;2022-12-19T15:25:52;24.97;;;12.53;;
4051;SDS011;2040;50.924;11.604;2022-12-19T15:28:20;39.07;;;11.67;;
4051;SDS011;2040;50.924;11.604;2022-12-19T15:30:57;25.60;;;11.57;;
4051;SDS011;2040;50.924;11.604;2022-12-19T15:33:26;31.87;;;13.00;;
4051;SDS011;2040;50.924;11.604;2022-12-19T15:35:52;34.33;;;11.37;;
4051;SDS011;2040;50.924;11.604;2022-12-19T15:38:17;36.67;;;12.30;;
4051;SDS011;2040;50.924;11.604;2022-12-19T15:40:43;26.70;;;12.00;;
4051;SDS011;2040;50.924;11.604;2022-12-19T15:43:19;26.80;;;11.00;;
4051;SDS011;2040;50.924;11.604;2022-12-19T15:45:48;33.97;;;11.10;;
4051;SDS011;2040;50.924;11.604;2022-12-19T15:48:19;31.13;;;10.60;;
4051;SDS011;2040;50.924;11.604;2022-12-19T15:50:45;25.97;;;11.60;;
4051;SDS011;2040;50.924;11.604;2022-12-19T15:53:29;30.43;;;13.10;;
4051;SDS011;2040;50.924;11.604;2022-12-19T15:55:56;30.80;;;12.57;;
4051;SDS011;2040;50.924;11.604;2022-12-19T15:58:24;34.13;;;11.40;;
4051;SDS011;2040;50.924;11.604;2022-12-19T16:00:57;29.43;;;11.57;;
4051;SDS011;2040;50.924;11.604;2022-12-19T16:03:25;18.33;;;10.00;;
4051;SDS011;2040;50.924;11.604;2022-12-19T16:05:51;26.70;;;11.30;;
4051;SDS011;2040;50.924;11.604;2022-12-19T16:08:18;27.07;;;11.10;;
4051;SDS011;2040;50.924;11.604;2022-12-19T16:10:50;23.87;;;9.73;;
4051;SDS011;2040;50.924;11.604;2022-12-19T16:13:22;27.70;;;12.53;;
4051;SDS011;2040;50.924;11.604;2022-12-19T16:15:49;30.77;;;11.60;;
4051;SDS011;2040;50.924;11.604;2022-12-19T16:18:16;22.00;;;10.17;;
4051;SDS011;2040;50.924;11.604;2022-12-19T16:20:43;24.07;;;11.87;;
4051;SDS011;2040;50.924;11.604;2022-12-19T16:23:09;19.43;;;8.93;;
4051;SDS011;2040;50.924;11.604;2022-12-19T16:25:39;22.93;;;11.00;;
4051;SDS011;2040;50.924;11.604;2022-12-19T16:28:07;32.23;;;11.43;;
4051;SDS011;2040;50.924;11.604;2022-12-19T16:30:40;32.63;;;10.47;;
4051;SDS011;2040;50.924;11.604;2022-12-19T16:33:21;30.57;;;11.40;;
4051;SDS011;2040;50.924;11.604;2022-12-19T16:35:49;27.80;;;9.87;;
4051;SDS011;2040;50.924;11.604;2022-12-19T16:38:16;31.07;;;11.97;;
4051;SDS011;2040;50.924;11.604;2022-12-19T16:40:42;22.50;;;9.37;;
4051;SDS011;2040;50.924;11.604;2022-12-19T16:45:37;26.97;;;10.53;;
4051;SDS011;2040;50.924;11.604;2022-12-19T16:48:09;31.80;;;10.80;;
4051;SDS011;2040;50.924;11.604;2022-12-19T16:50:42;20.13;;;9.57;;
4051;SDS011;2040;50.924;11.604;2022-12-19T16:53:08;21.23;;;9.17;;
4051;SDS011;2040;50.924;11.604;2022-12-19T16:55:33;19.13;;;9.03;;
4051;SDS011;2040;50.924;11.604;2022-12-19T16:57:59;23.00;;;10.57;;
4051;SDS011;2040;50.924;11.604;2022-12-19T17:00:25;24.57;;;9.77;;
4051;SDS011;2040;50.924;11.604;2022-12-19T17:02:52;16.60;;;8.63;;
4051;SDS011;2040;50.924;11.604;2022-12-19T17:05:26;26.30;;;11.23;;
4051;SDS011;2040;50.924;11.604;2022-12-19T17:07:53;26.07;;;9.43;;
4051;SDS011;2040;50.924;11.604;2022-12-19T17:10:21;19.10;;;8.77;;
4051;SDS011;2040;50.924;11.604;2022-12-19T17:12:51;19.90;;;8.73;;
4051;SDS011;2040;50.924;11.604;2022-12-19T17:15:23;22.07;;;8.43;;
4051;SDS011;2040;50.924;11.604;2022-12-19T17:17:52;20.33;;;8.83;;
4051;SDS011;2040;50.924;11.604;2022-12-19T17:20:21;19.23;;;9.40;;
4051;SDS011;2040;50.924;11.604;2022-12-19T17:22:49;22.40;;;8.90;;
4051;SDS011;2040;50.924;11.604;2022-12-19T17:25:20;26.13;;;7.97;;
4051;SDS011;2040;50.924;11.604;2022-12-19T17:27:47;18.77;;;7.60;;
4051;SDS011;2040;50.924;11.604;2022-12-19T17:30:14;19.67;;;8.43;;
4051;SDS011;2040;50.924;11.604;2022-12-19T17:32:40;16.87;;;9.10;;
4051;SDS011;2040;50.924;11.604;2022-12-19T17:35:09;15.10;;;8.10;;
4051;SDS011;2040;50.924;11.604;2022-12-19T17:37:42;19.00;;;9.20;;
4051;SDS011;2040;50.924;11.604;2022-12-19T17:40:13;20.40;;;8.57;;
4051;SDS011;2040;50.924;11.604;2022-12-19T17:42:50;16.83;;;7.50;;